createdAt,value
2017-05-01T00:00:46.536Z,7.00
2017-05-01T00:03:16.316Z,7.00
2017-05-01T00:05:45.380Z,7.00
2017-05-01T00:08:14.428Z,7.00
2017-05-01T00:10:43.491Z,7.00
2017-05-01T00:13:12.528Z,6.90
2017-05-01T00:15:42.343Z,6.70
2017-05-01T00:18:12.120Z,6.70
2017-05-01T00:20:41.199Z,6.80
2017-05-01T00:23:10.240Z,6.80
2017-05-01T00:25:40.061Z,6.70
2017-05-01T00:28:09.830Z,6.80
2017-05-01T00:30:38.904Z,6.80
2017-05-01T00:33:07.980Z,6.80
2017-05-01T00:35:37.011Z,6.80
2017-05-01T00:38:06.096Z,6.80
2017-05-01T00:40:35.136Z,6.70
2017-05-01T00:43:04.201Z,6.60
2017-05-01T00:45:33.291Z,6.70
2017-05-01T00:48:02.369Z,6.60
2017-05-01T00:50:31.447Z,6.60
2017-05-01T00:53:00.494Z,6.60
2017-05-01T00:55:29.567Z,6.60
2017-05-01T00:57:58.631Z,6.60
2017-05-01T01:00:27.672Z,6.60
2017-05-01T01:02:56.740Z,6.60
2017-05-01T01:05:26.015Z,6.60
2017-05-01T01:07:55.420Z,6.60
2017-05-01T01:10:40.268Z,6.60
2017-05-01T01:13:10.402Z,6.60
2017-05-01T01:15:39.443Z,6.60
2017-05-01T01:18:08.531Z,6.50
2017-05-01T01:20:37.602Z,6.50
2017-05-01T01:23:06.892Z,6.40
2017-05-01T01:25:35.975Z,6.30
2017-05-01T01:28:05.022Z,6.30
2017-05-01T01:30:34.108Z,6.30
2017-05-01T01:33:03.176Z,6.30
2017-05-01T01:35:32.273Z,6.30
2017-05-01T01:38:01.333Z,6.30
2017-05-01T01:40:31.187Z,6.20
2017-05-01T01:43:00.479Z,6.30
2017-05-01T01:45:29.575Z,6.30
2017-05-01T01:47:58.639Z,6.40
2017-05-01T01:50:28.794Z,6.30
2017-05-01T01:52:57.854Z,6.30
2017-05-01T01:55:27.693Z,6.20
2017-05-01T01:57:56.765Z,6.20
2017-05-01T02:00:25.832Z,6.20
2017-05-01T02:02:55.195Z,6.10
2017-05-01T02:05:24.279Z,6.20
2017-05-01T02:07:53.359Z,6.10
2017-05-01T02:10:23.191Z,6.10
2017-05-01T02:12:52.332Z,6.00
2017-05-01T02:15:21.399Z,6.00
2017-05-01T02:17:50.503Z,6.00
2017-05-01T02:20:19.589Z,6.00
2017-05-01T02:22:48.647Z,6.00
2017-05-01T02:25:18.488Z,6.00
2017-05-01T02:27:47.545Z,6.00
2017-05-01T02:30:16.642Z,5.90
2017-05-01T02:32:45.735Z,5.80
2017-05-01T02:35:15.805Z,5.80
2017-05-01T02:37:44.904Z,5.90
2017-05-01T02:40:13.964Z,6.00
2017-05-01T02:42:43.052Z,6.00
2017-05-01T02:45:12.854Z,5.80
2017-05-01T02:47:41.943Z,5.80
2017-05-01T02:50:11.009Z,5.70
2017-05-01T02:52:40.730Z,5.80
2017-05-01T02:55:09.820Z,5.70
2017-05-01T02:57:38.917Z,5.70
2017-05-01T03:00:07.978Z,5.70
2017-05-01T03:02:37.103Z,5.70
2017-05-01T03:05:06.492Z,5.60
2017-05-01T03:07:35.613Z,5.50
2017-05-01T03:10:05.073Z,5.50
2017-05-01T03:12:34.153Z,5.50
2017-05-01T03:15:03.241Z,5.40
2017-05-01T03:17:32.588Z,5.30
2017-05-01T03:20:01.691Z,5.30
2017-05-01T03:22:30.749Z,5.30
2017-05-01T03:24:59.857Z,5.30
2017-05-01T03:27:29.668Z,5.40
2017-05-01T03:29:59.448Z,5.40
2017-05-01T03:32:28.525Z,5.30
2017-05-01T03:34:57.625Z,5.30
2017-05-01T03:37:26.669Z,5.20
2017-05-01T03:39:55.734Z,5.20
2017-05-01T03:42:25.087Z,5.20
2017-05-01T03:44:54.161Z,5.20
2017-05-01T03:47:23.943Z,5.20
2017-05-01T03:49:53.011Z,5.30
2017-05-01T03:52:22.051Z,5.30
2017-05-01T03:54:51.387Z,5.30
2017-05-01T03:57:20.424Z,5.40
2017-05-01T03:59:49.491Z,5.50
2017-05-01T04:02:18.572Z,5.50
2017-05-01T04:04:47.612Z,5.40
2017-05-01T04:07:16.700Z,5.40
2017-05-01T04:09:45.727Z,5.40
2017-05-01T04:12:14.829Z,5.40
2017-05-01T04:14:43.866Z,5.40
2017-05-01T04:17:12.952Z,5.30
2017-05-01T04:19:41.988Z,5.40
2017-05-01T04:22:11.059Z,5.40
2017-05-01T04:24:40.136Z,5.40
2017-05-01T04:27:09.167Z,5.50
2017-05-01T04:29:38.250Z,5.50
2017-05-01T04:32:07.314Z,5.50
2017-05-01T04:34:37.079Z,5.50
2017-05-01T04:37:06.155Z,5.60
2017-05-01T04:39:35.231Z,5.60
2017-05-01T04:42:04.272Z,5.60
2017-05-01T04:44:33.371Z,5.60
2017-05-01T04:47:02.416Z,5.60
2017-05-01T04:49:31.484Z,5.70
2017-05-01T04:52:01.263Z,5.70
2017-05-01T04:54:30.359Z,5.80
2017-05-01T04:56:59.384Z,5.80
2017-05-01T04:59:29.202Z,5.80
2017-05-01T05:01:58.970Z,5.90
2017-05-01T05:04:28.052Z,6.00
2017-05-01T05:06:57.119Z,6.00
2017-05-01T05:09:26.187Z,6.00
2017-05-01T05:11:55.269Z,6.00
2017-05-01T05:14:24.319Z,6.10
2017-05-01T05:16:53.378Z,6.10
2017-05-01T05:19:22.407Z,6.20
2017-05-01T05:21:51.542Z,6.20
2017-05-01T05:24:20.585Z,6.20
2017-05-01T05:26:51.311Z,6.30
2017-05-01T05:29:21.082Z,6.40
2017-05-01T05:31:50.168Z,6.30
2017-05-01T05:34:19.212Z,6.30
2017-05-01T05:36:49.026Z,6.40
2017-05-01T05:39:18.811Z,6.40
2017-05-01T05:41:47.931Z,6.50
2017-05-01T05:44:17.296Z,6.60
2017-05-01T05:46:46.656Z,6.70
2017-05-01T05:49:15.750Z,6.70
2017-05-01T05:51:45.527Z,6.80
2017-05-01T05:54:14.604Z,7.00
2017-05-01T05:56:43.647Z,7.00
2017-05-01T05:59:13.473Z,7.10
2017-05-01T06:01:42.516Z,7.20
2017-05-01T06:04:11.599Z,7.20
2017-05-01T06:06:40.668Z,7.30
2017-05-01T06:09:09.703Z,7.40
2017-05-01T06:11:38.788Z,7.40
2017-05-01T06:14:07.828Z,7.50
2017-05-01T06:16:37.643Z,7.50
2017-05-01T06:19:07.496Z,7.60
2017-05-01T06:21:37.365Z,7.80
2017-05-01T06:24:07.180Z,7.80
2017-05-01T06:26:36.963Z,7.70
2017-05-01T06:29:06.030Z,7.90
2017-05-01T06:31:35.104Z,8.00
2017-05-01T06:34:04.131Z,8.00
2017-05-01T06:36:33.219Z,8.10
2017-05-01T06:39:02.259Z,8.30
2017-05-01T06:41:31.337Z,8.40
2017-05-01T06:44:00.384Z,8.50
2017-05-01T06:46:29.453Z,8.70
2017-05-01T06:48:59.281Z,8.70
2017-05-01T06:51:29.063Z,8.70
2017-05-01T06:53:58.123Z,8.80
2017-05-01T06:56:27.192Z,9.00
2017-05-01T06:58:56.258Z,9.10
2017-05-01T07:01:25.313Z,9.10
2017-05-01T07:03:54.383Z,9.20
2017-05-01T07:06:23.420Z,9.20
2017-05-01T07:08:52.639Z,9.30
2017-05-01T07:11:21.721Z,9.60
2017-05-01T07:13:50.777Z,9.80
2017-05-01T07:16:19.851Z,9.90
2017-05-01T07:18:49.664Z,9.90
2017-05-01T07:21:19.479Z,9.90
2017-05-01T07:23:49.262Z,10.00
2017-05-01T07:26:18.331Z,10.10
2017-05-01T07:28:47.374Z,10.20
2017-05-01T07:31:17.203Z,10.30
2017-05-01T07:33:46.244Z,10.30
2017-05-01T07:36:15.323Z,10.30
2017-05-01T07:38:44.367Z,10.50
2017-05-01T07:41:14.178Z,10.70
2017-05-01T07:43:43.976Z,10.80
2017-05-01T07:46:13.038Z,10.80
2017-05-01T07:48:42.197Z,10.80
2017-05-01T07:51:11.254Z,10.90
2017-05-01T07:53:40.703Z,11.00
2017-05-01T07:56:09.793Z,11.00
2017-05-01T07:58:39.628Z,11.00
2017-05-01T08:01:08.681Z,11.30
2017-05-01T08:03:37.771Z,11.60
2017-05-01T08:06:06.812Z,11.60
2017-05-01T08:08:35.899Z,11.60
2017-05-01T08:11:04.952Z,11.50
2017-05-01T08:13:34.030Z,11.40
2017-05-01T08:16:03.096Z,11.60
2017-05-01T08:18:32.195Z,11.90
2017-05-01T08:21:01.242Z,12.00
2017-05-01T08:23:30.308Z,12.00
2017-05-01T08:25:59.449Z,12.00
2017-05-01T08:28:29.224Z,12.10
2017-05-01T08:30:58.307Z,12.20
2017-05-01T08:33:27.360Z,12.30
2017-05-01T08:35:57.205Z,12.50
2017-05-01T08:38:26.245Z,12.70
2017-05-01T08:40:55.334Z,12.80
2017-05-01T08:43:24.433Z,12.90
2017-05-01T08:45:53.512Z,13.00
2017-05-01T08:48:22.621Z,12.90
2017-05-01T08:50:51.685Z,13.10
2017-05-01T08:53:20.805Z,13.30
2017-05-01T08:55:49.839Z,13.20
2017-05-01T08:58:18.132Z,13.20
2017-05-01T09:00:47.222Z,13.40
2017-05-01T09:03:16.301Z,13.60
2017-05-01T09:05:46.142Z,13.70
2017-05-01T09:08:15.186Z,13.80
2017-05-01T09:10:44.267Z,13.70
2017-05-01T09:13:13.341Z,13.80
2017-05-01T09:15:42.383Z,13.70
2017-05-01T09:18:11.463Z,13.80
2017-05-01T09:20:40.816Z,14.00
2017-05-01T09:23:09.907Z,14.10
2017-05-01T09:25:38.970Z,14.20
2017-05-01T09:28:08.044Z,14.20
2017-05-01T09:30:37.133Z,14.20
2017-05-01T09:33:06.171Z,14.20
2017-05-01T09:35:35.996Z,14.30
2017-05-01T09:38:05.772Z,14.30
2017-05-01T09:40:34.841Z,14.30
2017-05-01T09:43:03.887Z,14.30
2017-05-01T09:45:33.707Z,14.40
2017-05-01T09:48:03.491Z,14.40
2017-05-01T09:50:32.556Z,14.60
2017-05-01T09:53:01.603Z,14.70
2017-05-01T09:55:31.414Z,14.80
2017-05-01T09:58:01.453Z,15.00
2017-05-01T10:00:30.620Z,15.20
2017-05-01T10:03:00.433Z,15.20
2017-05-01T10:05:29.764Z,15.40
2017-05-01T10:07:59.072Z,15.50
2017-05-01T10:10:28.166Z,15.60
2017-05-01T10:12:57.460Z,15.50
2017-05-01T10:15:26.558Z,15.40
2017-05-01T10:17:55.614Z,15.40
2017-05-01T10:20:24.695Z,15.40
2017-05-01T10:22:53.757Z,15.50
2017-05-01T10:25:22.824Z,15.60
2017-05-01T10:27:52.638Z,15.70
2017-05-01T10:30:21.955Z,15.90
2017-05-01T10:32:51.078Z,16.00
2017-05-01T10:35:20.116Z,16.10
2017-05-01T10:37:49.210Z,16.10
2017-05-01T10:40:18.251Z,16.10
2017-05-01T10:42:47.639Z,16.20
2017-05-01T10:45:16.683Z,15.90
2017-05-01T10:47:45.793Z,15.70
2017-05-01T10:50:15.059Z,15.90
2017-05-01T10:52:44.159Z,16.10
2017-05-01T10:55:13.223Z,16.20
2017-05-01T10:57:42.297Z,16.30
2017-05-01T11:00:12.112Z,16.40
2017-05-01T11:02:42.151Z,16.50
2017-05-01T11:05:11.564Z,16.50
2017-05-01T11:07:40.612Z,16.50
2017-05-01T11:10:09.763Z,16.60
2017-05-01T11:12:38.817Z,16.70
2017-05-01T11:15:08.639Z,16.70
2017-05-01T11:17:38.432Z,16.70
2017-05-01T11:20:07.502Z,16.50
2017-05-01T11:22:36.559Z,16.50
2017-05-01T11:25:05.968Z,16.60
2017-05-01T11:27:35.011Z,16.60
2017-05-01T11:30:04.084Z,16.50
2017-05-01T11:32:33.169Z,16.10
2017-05-01T11:35:02.211Z,16.20
2017-05-01T11:37:31.292Z,16.50
2017-05-01T11:40:00.340Z,16.80
2017-05-01T11:42:29.737Z,16.80
2017-05-01T11:44:58.780Z,16.60
2017-05-01T11:47:28.134Z,16.60
2017-05-01T11:49:57.224Z,16.50
2017-05-01T11:52:27.034Z,16.30
2017-05-01T11:54:56.861Z,16.30
2017-05-01T11:57:25.897Z,16.00
2017-05-01T11:59:55.042Z,16.00
2017-05-01T12:02:24.108Z,16.00
2017-05-01T12:04:53.172Z,16.10
2017-05-01T12:07:22.220Z,16.10
2017-05-01T12:09:52.035Z,16.20
2017-05-01T12:12:21.825Z,16.10
2017-05-01T12:14:50.917Z,16.20
2017-05-01T12:17:20.004Z,16.70
2017-05-01T12:19:49.049Z,16.90
2017-05-01T12:22:18.138Z,16.60
2017-05-01T12:24:47.967Z,16.50
2017-05-01T12:27:17.008Z,16.50
2017-05-01T12:29:46.093Z,16.40
2017-05-01T12:32:15.140Z,16.40
2017-05-01T12:34:44.542Z,16.40
2017-05-01T12:37:13.595Z,16.60
2017-05-01T12:39:42.684Z,16.80
2017-05-01T12:42:11.732Z,16.90
2017-05-01T12:44:40.821Z,16.80
2017-05-01T12:47:10.619Z,16.60
2017-05-01T12:49:40.446Z,16.60
2017-05-01T12:52:10.218Z,16.70
2017-05-01T12:54:39.303Z,16.70
2017-05-01T12:57:08.357Z,16.60
2017-05-01T12:59:37.443Z,16.50
2017-05-01T13:02:07.226Z,16.50
2017-05-01T13:04:36.299Z,16.50
2017-05-01T13:07:05.388Z,16.70
2017-05-01T13:09:34.441Z,16.90
2017-05-01T13:12:04.266Z,16.80
2017-05-01T13:14:33.951Z,16.90
2017-05-01T13:17:02.998Z,16.90
2017-05-01T13:19:32.087Z,16.80
2017-05-01T13:22:01.138Z,16.80
2017-05-01T13:24:30.970Z,16.80
2017-05-01T13:27:00.021Z,16.80
2017-05-01T13:29:29.380Z,16.70
2017-05-01T13:31:58.419Z,16.30
2017-05-01T13:34:27.507Z,16.30
2017-05-01T13:36:56.550Z,16.30
2017-05-01T13:39:26.377Z,16.20
2017-05-01T13:41:55.418Z,16.30
2017-05-01T13:44:24.515Z,16.30
2017-05-01T13:46:53.830Z,16.40
2017-05-01T13:49:22.881Z,16.40
2017-05-01T13:51:52.005Z,16.20
2017-05-01T13:54:21.056Z,16.30
2017-05-01T13:56:50.127Z,16.30
2017-05-01T13:59:19.983Z,16.00
2017-05-01T14:01:49.033Z,16.00
2017-05-01T14:04:18.861Z,15.90
2017-05-01T14:06:48.639Z,16.00
2017-05-01T14:09:17.741Z,16.10
2017-05-01T14:11:46.783Z,16.10
2017-05-01T14:14:15.887Z,16.00
2017-05-01T14:16:44.940Z,16.00
2017-05-01T14:19:14.759Z,16.10
2017-05-01T14:21:44.676Z,16.00
2017-05-01T14:24:14.466Z,15.80
2017-05-01T14:26:43.545Z,15.70
2017-05-01T14:29:12.594Z,15.80
2017-05-01T14:31:41.684Z,15.80
2017-05-01T14:34:10.736Z,15.90
2017-05-01T14:36:39.827Z,15.90
2017-05-01T14:39:09.186Z,15.90
2017-05-01T14:41:38.272Z,15.90
2017-05-01T14:44:07.311Z,16.10
2017-05-01T14:46:36.404Z,16.20
2017-05-01T14:49:05.479Z,16.30
2017-05-01T14:51:34.524Z,16.40
2017-05-01T14:54:03.613Z,16.40
2017-05-01T14:56:32.663Z,16.40
2017-05-01T14:59:02.058Z,16.30
2017-05-01T15:01:31.360Z,16.30
2017-05-01T15:04:00.479Z,16.40
2017-05-01T15:06:29.532Z,16.10
2017-05-01T15:08:59.362Z,16.00
2017-05-01T15:11:28.415Z,15.90
2017-05-01T15:13:57.489Z,15.90
2017-05-01T15:16:26.561Z,15.90
2017-05-01T15:18:55.630Z,16.00
2017-05-01T15:21:25.451Z,16.00
2017-05-01T15:23:55.238Z,16.10
2017-05-01T15:26:24.572Z,16.00
2017-05-01T15:28:53.608Z,16.10
2017-05-01T15:31:22.706Z,16.00
2017-05-01T15:33:51.745Z,16.10
2017-05-01T15:36:21.594Z,16.20
2017-05-01T15:38:50.977Z,16.40
2017-05-01T15:41:20.356Z,16.30
2017-05-01T15:43:50.144Z,16.10
2017-05-01T15:46:19.228Z,16.10
2017-05-01T15:48:48.267Z,16.20
2017-05-01T15:51:18.183Z,16.10
2017-05-01T15:53:47.235Z,16.00
2017-05-01T15:56:16.307Z,16.10
2017-05-01T15:58:45.380Z,16.30
2017-05-01T16:01:14.425Z,16.50
2017-05-01T16:03:43.518Z,16.30
2017-05-01T16:06:12.569Z,16.20
2017-05-01T16:08:41.651Z,16.30
2017-05-01T16:11:11.665Z,16.40
2017-05-01T16:13:41.489Z,16.30
2017-05-01T16:16:10.787Z,16.30
2017-05-01T16:18:39.855Z,16.00
2017-05-01T16:21:08.933Z,16.00
2017-05-01T16:23:37.980Z,15.90
2017-05-01T16:26:07.287Z,16.00
2017-05-01T16:28:36.323Z,15.90
2017-05-01T16:31:05.406Z,15.80
2017-05-01T16:33:34.447Z,15.70
2017-05-01T16:36:04.271Z,15.50
2017-05-01T16:38:34.050Z,15.50
2017-05-01T16:41:03.124Z,15.60
2017-05-01T16:43:32.575Z,15.70
2017-05-01T16:46:02.714Z,15.60
2017-05-01T16:48:32.216Z,15.60
2017-05-01T16:51:01.277Z,15.60
2017-05-01T16:53:30.367Z,15.60
2017-05-01T16:55:59.447Z,15.60
2017-05-01T16:58:28.496Z,15.60
2017-05-01T17:00:58.374Z,15.50
2017-05-01T17:03:27.421Z,15.50
2017-05-01T17:05:56.497Z,15.60
2017-05-01T17:08:26.304Z,15.50
2017-05-01T17:10:56.125Z,15.50
2017-05-01T17:13:25.190Z,15.50
2017-05-01T17:15:54.278Z,15.40
2017-05-01T17:18:23.320Z,15.30
2017-05-01T17:20:52.412Z,15.30
2017-05-01T17:23:21.454Z,15.20
2017-05-01T17:25:50.807Z,15.20
2017-05-01T17:28:20.668Z,15.20
2017-05-01T17:30:49.756Z,15.10
2017-05-01T17:33:18.793Z,15.00
2017-05-01T17:35:48.606Z,15.00
2017-05-01T17:38:18.402Z,15.00
2017-05-01T17:40:47.501Z,15.00
2017-05-01T17:43:16.544Z,15.00
2017-05-01T17:45:45.610Z,14.90
2017-05-01T17:48:15.427Z,14.90
2017-05-01T17:50:45.211Z,14.90
2017-05-01T17:53:14.995Z,14.80
2017-05-01T17:55:44.019Z,14.80
2017-05-01T17:58:13.093Z,14.70
2017-05-01T18:00:42.455Z,14.70
2017-05-01T18:03:11.529Z,14.60
2017-05-01T18:05:41.320Z,14.60
2017-05-01T18:08:10.393Z,14.60
2017-05-01T18:10:39.453Z,14.50
2017-05-01T18:13:08.519Z,14.60
2017-05-01T18:15:37.598Z,14.60
2017-05-01T18:18:07.153Z,14.50
2017-05-01T18:20:36.575Z,14.50
2017-05-01T18:23:06.589Z,14.40
2017-05-01T18:25:35.708Z,14.40
2017-05-01T18:28:04.770Z,14.30
2017-05-01T18:30:33.865Z,14.30
2017-05-01T18:33:02.924Z,14.20
2017-05-01T18:35:31.973Z,14.20
2017-05-01T18:38:01.054Z,14.20
2017-05-01T18:40:30.120Z,14.20
2017-05-01T18:42:59.204Z,14.10
2017-05-01T18:45:28.294Z,14.10
2017-05-01T18:47:57.330Z,14.00
2017-05-01T18:50:26.407Z,14.00
2017-05-01T18:52:56.231Z,13.90
2017-05-01T18:55:25.282Z,13.90
2017-05-01T18:57:54.361Z,13.90
2017-05-01T19:00:23.443Z,13.90
2017-05-01T19:02:52.492Z,13.90
2017-05-01T19:05:21.580Z,13.90
2017-05-01T19:07:50.627Z,13.90
2017-05-01T19:10:19.696Z,13.80
2017-05-01T19:12:49.503Z,13.80
2017-05-01T19:15:19.284Z,13.80
2017-05-01T19:17:48.634Z,13.80
2017-05-01T19:20:17.664Z,13.70
2017-05-01T19:22:46.745Z,13.70
2017-05-01T19:25:15.803Z,13.70
2017-05-01T19:27:45.613Z,13.70
2017-05-01T19:30:15.403Z,13.70
2017-05-01T19:32:44.492Z,13.60
2017-05-01T19:35:13.532Z,13.60
2017-05-01T19:37:42.611Z,13.60
2017-05-01T19:40:12.644Z,13.60
2017-05-01T19:42:42.424Z,13.60
2017-05-01T19:45:11.508Z,13.60
2017-05-01T19:47:40.556Z,13.60
2017-05-01T19:50:09.628Z,13.60
2017-05-01T19:52:40.015Z,13.60
2017-05-01T19:55:09.082Z,13.50
2017-05-01T19:57:38.125Z,13.50
2017-05-01T20:00:07.203Z,13.40
2017-05-01T20:02:36.279Z,13.40
2017-05-01T20:05:05.316Z,13.40
2017-05-01T20:07:34.378Z,13.40
2017-05-01T20:10:03.419Z,13.40
2017-05-01T20:12:33.227Z,13.40
2017-05-01T20:15:02.268Z,13.40
2017-05-01T20:17:31.349Z,13.30
2017-05-01T20:20:00.390Z,13.30
2017-05-01T20:22:29.470Z,13.30
2017-05-01T20:24:58.567Z,13.30
2017-05-01T20:27:27.656Z,13.30
2017-05-01T20:29:56.700Z,13.30
2017-05-01T20:32:26.512Z,13.20
2017-05-01T20:34:56.297Z,13.20
2017-05-01T20:37:25.389Z,13.10
2017-05-01T20:39:54.441Z,13.10
2017-05-01T20:42:23.505Z,13.10
2017-05-01T20:44:52.588Z,13.10
2017-05-01T20:47:21.628Z,13.10
2017-05-01T20:49:50.700Z,13.10
2017-05-01T20:52:20.526Z,13.00
2017-05-01T20:54:50.311Z,13.00
2017-05-01T20:57:19.379Z,13.00
2017-05-01T20:59:48.414Z,13.00
2017-05-01T21:02:18.233Z,13.00
2017-05-01T21:04:48.016Z,13.00
2017-05-01T21:07:17.095Z,13.00
2017-05-01T21:09:46.135Z,12.90
2017-05-01T21:12:15.970Z,12.90
2017-05-01T21:14:45.018Z,12.90
2017-05-01T21:17:14.095Z,12.90
2017-05-01T21:19:43.147Z,12.90
2017-05-01T21:22:12.229Z,12.80
2017-05-01T21:24:42.037Z,12.80
2017-05-01T21:27:11.820Z,12.80
2017-05-01T21:29:40.908Z,12.80
2017-05-01T21:32:09.947Z,12.80
2017-05-01T21:34:39.771Z,12.80
2017-05-01T21:37:08.815Z,12.70
2017-05-01T21:39:37.904Z,12.70
2017-05-01T21:42:06.946Z,12.70
2017-05-01T21:44:36.774Z,12.80
2017-05-01T21:47:05.820Z,12.70
2017-05-01T21:49:34.896Z,12.70
2017-05-01T21:52:03.944Z,12.70
2017-05-01T21:54:33.780Z,12.60
2017-05-01T21:57:02.830Z,12.70
2017-05-01T21:59:31.906Z,12.60
2017-05-01T22:02:00.948Z,12.60
2017-05-01T22:04:30.763Z,12.60
2017-05-01T22:07:00.586Z,12.50
2017-05-01T22:09:29.631Z,12.60
2017-05-01T22:11:58.979Z,12.50
2017-05-01T22:14:28.036Z,12.50
2017-05-01T22:16:57.129Z,12.50
2017-05-01T22:19:26.177Z,12.50
2017-05-01T22:21:55.247Z,12.50
2017-05-01T22:24:25.076Z,12.40
2017-05-01T22:26:54.130Z,12.40
2017-05-01T22:29:23.208Z,12.40
2017-05-01T22:31:52.283Z,12.40
2017-05-01T22:34:21.320Z,12.40
2017-05-01T22:36:50.406Z,12.40
2017-05-01T22:39:19.453Z,12.40
2017-05-01T22:41:48.536Z,12.30
2017-05-01T22:44:17.839Z,12.30
2017-05-01T22:46:46.954Z,12.20
2017-05-01T22:49:15.996Z,12.20
2017-05-01T22:51:45.073Z,12.20
2017-05-01T22:54:14.148Z,12.20
2017-05-01T22:56:43.180Z,12.20
2017-05-01T22:59:12.439Z,12.20
2017-05-01T23:01:41.508Z,12.20
2017-05-01T23:04:11.327Z,12.10
2017-05-01T23:06:41.100Z,12.10
2017-05-01T23:09:10.167Z,12.10
2017-05-01T23:11:39.202Z,12.10
2017-05-01T23:14:08.529Z,12.10
2017-05-01T23:16:37.776Z,12.00
2017-05-01T23:19:06.851Z,12.00
2017-05-01T23:21:35.886Z,12.00
2017-05-01T23:24:04.952Z,12.00
2017-05-01T23:26:34.011Z,12.00
2017-05-01T23:29:03.048Z,12.00
2017-05-01T23:31:32.408Z,12.00
2017-05-01T23:34:01.708Z,12.00
2017-05-01T23:36:30.767Z,12.00
2017-05-01T23:38:59.832Z,11.90
2017-05-01T23:41:28.888Z,11.90
2017-05-01T23:43:58.689Z,11.80
2017-05-01T23:46:28.454Z,11.80
2017-05-01T23:48:57.824Z,11.80
2017-05-01T23:51:27.591Z,11.70
2017-05-01T23:53:56.666Z,11.70
2017-05-01T23:56:25.687Z,11.70
2017-05-01T23:58:54.765Z,11.70
